Monday, January 21, 2019, 10:09 PM GMT
Back to Local

CZBF, Bathurst Airport Aviation Weather Reporting Station

Location: , , Canada Lat: 47.633
Local Time: 10:09 PM GMT (22:09 GMT) Lon: -65.75
Time Zone: GMT Elev: 193 ft

Show me the last for .
Show Coded

Time T Td Feel RH Dir Speed Gust Alt SLP Vis Weather Sky Remarks
2019-01-21 21:00 12 5 1 72 310° 8 - 29.51 29.53 8 -SN FEW065 OVC080 None
2019-01-21 20:00 14 5 2 66 320° 9 - 29.49 29.51 8 -SN OVC065 None
2019-01-21 19:45 14 7 4 72 320° 7 - 29.49 29.50 6 -SN SCT022 OVC065 None
2019-01-21 19:42 14 7 6 72 320° 5 - 29.49 29.51 5 -SN SCT022 OVC065 Pressure rising rapidly
2019-01-21 19:31 14 7 3 72 320° 8 - 29.48 29.49 3 -SN OVC020 None
2019-01-21 19:22 14 7 4 72 320° 7 - 29.48 29.49 2 -SN OVC018 Pressure rising rapidly
2019-01-21 19:15 12 7 0 78 310° 9 - 29.47 29.49 1 -SN VV018 Pressure rising rapidly
2019-01-21 19:08 14 9 2 78 310° 9 - 29.46 29.48 0 -SN VV018 None
2019-01-21 19:00 14 9 4 78 330° 7 - 29.46 29.48 1 -SN OVC021 None
2019-01-21 18:58 14 9 5 78 330° 6 - 29.46 29.47 1 -SN OVC021 None
2019-01-21 18:39 14 7 4 72 320° 7 - 29.46 29.47 2 -SN OVC020 None
2019-01-21 18:00 14 9 4 78 310° 7 - 29.46 29.47 1 -SN VV013 Pressure rising rapidly
2019-01-21 17:58 14 9 6 78 310° 5 - 29.45 29.47 1 -SN VV012 None
2019-01-21 17:32 14 9 5 78 320° 6 - 29.44 29.46 0 -SN VV013 None
2019-01-21 17:14 14 9 6 78 320° 5 - 29.43 29.45 1 -SN BKN021 OVC027 Pressure rising rapidly
2019-01-21 17:08 14 7 3 72 330° 8 - 29.43 29.45 2 -SN FEW018 OVC024 Pressure rising rapidly
2019-01-21 17:00 14 7 3 72 320° 8 - 29.42 29.44 3 -SN OVC019 None
2019-01-21 16:52 14 7 5 72 350° 6 - 29.41 29.43 3 -SN BKN017 OVC024 None
2019-01-21 16:49 14 9 5 78 340° 6 - 29.41 29.43 2 -SN BKN017 OVC024 None
2019-01-21 16:39 14 9 4 78 320° 7 - 29.41 29.43 1 -SN BKN019 OVC024 None
2019-01-21 16:38 14 9 5 78 320° 6 - 29.41 29.43 2 -SN BKN019 OVC024 None
2019-01-21 16:31 14 7 -3 72 310° 9 17 29.41 29.43 5 -SN BKN024 OVC033 None
2019-01-21 16:23 14 7 -3 72 320° 9 17 29.41 29.42 6 -SN BKN024 OVC031 None
2019-01-21 16:00 14 7 4 72 320° 7 - 29.40 29.42 7 -SN SCT020 OVC032 None
2019-01-21 15:57 14 7 3 72 330° 8 - 29.40 29.41 6 -SN FEW020 BKN028 OVC032 None
2019-01-21 15:33 14 7 -3 72 350° 9 18 29.39 29.41 5 -SN FEW026 OVC032 Pressure falling rapidly
2019-01-21 15:22 14 5 -3 66 340° 9 17 29.41 29.42 9 -SN OVC034 None
2019-01-21 15:14 14 5 -3 66 360° 7 17 29.41 29.42 9 OVC034 None
2019-01-21 15:00 14 5 -4 66 340° 8 21 29.40 29.41 9 -SN OVC034 None
2019-01-21 14:50 14 7 2 72 340° 9 - 29.39 29.40 9 FEW023 OVC034 None
2019-01-21 14:00 14 9 5 78 330° 6 - 29.36 29.38 9 -SN OVC042 None
2019-01-21 13:50 14 9 -3 78 330° 8 20 29.35 29.37 6 -SN OVC042 None
2019-01-21 13:42 14 9 -3 78 320° 10 20 29.35 29.37 3 -SN BKN035 OVC044 None
2019-01-21 13:30 14 9 -3 78 330° 7 18 29.35 29.37 2 -SN BKN026 OVC044 None
2019-01-21 13:29 14 9 -3 78 320° 7 18 29.35 29.37 2 -SN BKN024 OVC044 None
2019-01-21 13:08 12 9 3 85 320° 6 - 29.34 29.36 1 -SN VV017 Pressure rising rapidly
2019-01-21 13:00 12 9 3 85 320° 6 - 29.34 29.35 0 -SN VV015 Pressure rising rapidly
2019-01-21 12:08 12 7 -6 78 330° 9 21 29.32 29.34 0 -SN VV014 None
2019-01-21 12:00 12 7 -6 78 340° 7 20 29.32 29.34 1 -SN OVC014 None
2019-01-21 11:40 12 7 -5 78 320° 9 18 29.31 29.33 1 -SN VV013 Pressure rising rapidly
2019-01-21 11:08 12 7 -6 78 330° 9 20 29.29 29.31 0 -SN VV013 None
2019-01-21 11:00 12 7 -6 78 330° 10 21 29.29 29.31 1 -SN VV014 None
2019-01-21 10:07 10 7 -9 84 330° 13 21 29.27 29.29 1 -SN VV017 Pressure falling rapidly
2019-01-21 10:00 10 7 -8 84 340° 9 20 29.28 29.30 0 -SN VV012 None
2019-01-21 09:58 10 7 -8 84 340° 10 20 29.29 29.30 0 -SN VV012 None
2019-01-21 09:00 10 7 -7 84 350° 7 17 29.30 29.32 1 -SN OVC014 None
2019-01-21 08:35 10 7 -10 84 350° 10 24 29.29 29.31 1 -SN OVC020 None
2019-01-21 08:20 10 7 -8 84 340° 10 18 29.30 29.31 2 -SN OVC022 None
2019-01-21 08:05 10 5 -7 78 350° 7 17 29.30 29.32 1 -SN BKN022 OVC030 None
2019-01-21 08:00 10 5 -7 78 340° 7 17 29.31 29.32 1 -SN OVC028 None
2019-01-21 07:46 10 5 -8 78 340° 9 18 29.31 29.33 1 -SN SCT018 OVC030 None
2019-01-21 07:00 9 5 -13 84 350° 13 26 29.32 29.34 1 -SN OVC016 None
2019-01-21 06:40 9 5 -11 84 350° 9 21 29.33 29.35 1 -SN OVC018 None
2019-01-21 06:23 10 5 -10 78 350° 13 25 29.34 29.36 2 -SN BKN020 OVC031 None
2019-01-21 06:00 10 7 -8 84 340° 7 20 29.33 29.35 1 -SN OVC013 None
2019-01-21 05:00 10 7 -9 84 360° 9 22 29.33 29.35 1 -SN OVC011 Pressure falling rapidly
2019-01-21 04:40 10 7 -7 84 350° 7 17 29.38 29.40 1 -SN VV010 Pressure rising rapidly
2019-01-21 04:39 10 7 -7 84 340° 7 17 29.38 29.40 1 -SN VV009 Pressure rising rapidly
2019-01-21 04:22 10 7 -8 84 360° 9 20 29.36 29.38 0 -SN VV008 Pressure falling rapidly
2019-01-21 04:00 10 7 -8 84 20° 9 18 29.38 29.39 0 -SN VV006 Pressure falling rapidly
2019-01-21 03:00 12 9 -5 85 360° 8 17 29.45 29.46 0 SN VV004 None
2019-01-21 02:32 14 10 -7 85 40° 12 31 29.46 29.47 0 SN VV004 None
2019-01-21 02:00 14 10 -8 85 30° 14 35 29.49 29.51 0 +SN VV003 Pressure falling rapidly
2019-01-21 01:00 14 10 -9 85 40° 21 40 29.53 29.55 0 +SN VV003 Pressure falling rapidly
2019-01-21 00:00 16 12 -6 85 40° 18 38 29.58 29.60 0 +SN VV003 Pressure falling rapidly
2019-01-20 23:00 18 16 -5 92 50° 24 43 29.65 29.67 0 +SN VV004 None

Support USWX by starting your Amazon purchase here.